createdAt,value
2018-03-25T09:51:53.617Z,73.80
2018-03-25T09:54:20.077Z,73.80
2018-03-25T09:56:46.680Z,74.50
2018-03-25T09:59:13.101Z,75.30
2018-03-25T10:01:45.723Z,74.70
2018-03-25T10:04:12.312Z,75.50
2018-03-25T10:06:38.879Z,75.50
2018-03-25T10:09:05.477Z,74.80
2018-03-25T10:11:31.972Z,73.80
2018-03-25T10:13:58.515Z,73.60
2018-03-25T10:18:53.485Z,71.50
2018-03-25T10:21:19.957Z,72.40
2018-03-25T10:23:46.483Z,72.50
2018-03-25T10:51:11.929Z,71.70
2018-03-25T10:53:38.820Z,74.00
2018-03-25T10:56:05.285Z,73.40
2018-03-25T11:25:40.855Z,74.40
2018-03-25T11:28:07.729Z,73.40
2018-03-25T11:30:34.272Z,74.90
2018-03-25T11:33:01.121Z,74.00
2018-03-25T11:35:27.591Z,71.40
2018-03-25T11:37:54.107Z,71.70
2018-03-25T11:40:20.717Z,73.20
2018-03-25T11:42:47.191Z,72.10
2018-03-25T11:45:13.716Z,73.50
2018-03-25T11:47:40.274Z,73.90
2018-03-25T11:50:06.809Z,74.90
2018-03-25T11:52:33.368Z,73.10
2018-03-25T11:54:59.940Z,76.30
2018-03-25T11:57:26.409Z,74.40
2018-03-25T11:59:53.000Z,76.00
2018-03-25T12:02:19.489Z,75.90
2018-03-25T12:07:15.070Z,75.70
2018-03-25T12:09:41.531Z,76.00
2018-03-25T12:12:08.184Z,75.90
2018-03-25T12:14:34.605Z,75.60
2018-03-25T12:17:03.391Z,76.30
2018-03-25T12:19:29.856Z,76.60
2018-03-25T12:21:56.352Z,76.80
2018-03-25T12:24:22.922Z,75.90
2018-03-25T12:26:49.496Z,75.50
2018-03-25T12:29:15.970Z,75.80
2018-03-25T12:31:42.556Z,76.80
2018-03-25T12:36:39.569Z,75.70
2018-03-25T12:39:06.153Z,74.40
2018-03-25T12:41:32.697Z,75.00
2018-03-25T12:43:59.176Z,75.10
2018-03-25T12:46:27.269Z,75.90
2018-03-25T12:48:54.094Z,75.90
2018-03-25T12:51:20.682Z,75.60
2018-03-25T12:53:47.144Z,76.40
2018-03-25T12:56:13.662Z,76.50
2018-03-25T12:58:40.295Z,77.00
2018-03-25T13:01:06.784Z,77.00
2018-03-25T13:03:37.604Z,77.30
2018-03-25T13:06:04.517Z,77.30
2018-03-25T13:08:30.918Z,77.60
2018-03-25T13:10:57.926Z,77.90
2018-03-25T13:13:24.381Z,76.90
2018-03-25T13:15:50.913Z,76.80
2018-03-25T13:18:17.506Z,77.10
2018-03-25T13:20:43.969Z,76.90
2018-03-25T13:23:10.489Z,76.60
2018-03-25T13:25:37.052Z,77.60
2018-03-25T13:28:03.948Z,75.90
2018-03-25T13:30:30.451Z,77.20
2018-03-25T13:32:57.951Z,75.80
2018-03-25T13:35:24.427Z,76.70
2018-03-25T13:37:50.998Z,76.60
2018-03-25T13:40:19.147Z,77.50
2018-03-25T13:42:45.862Z,77.20
2018-03-25T13:45:12.464Z,77.20
2018-03-25T13:47:38.990Z,77.20
2018-03-25T13:50:06.420Z,76.70
2018-03-25T13:52:33.226Z,77.10
2018-03-25T13:55:00.737Z,77.40
2018-03-25T13:57:29.078Z,76.10
2018-03-25T13:59:55.588Z,75.30
2018-03-25T14:02:23.162Z,75.50
2018-03-25T14:04:50.556Z,75.10
2018-03-25T14:07:17.348Z,74.60
2018-03-25T14:09:43.945Z,75.00
2018-03-25T14:12:10.415Z,75.50
2018-03-25T14:14:37.329Z,74.40
2018-03-25T14:17:03.926Z,74.10
2018-03-25T14:19:30.648Z,74.70
2018-03-25T14:21:57.948Z,75.30
2018-03-25T14:24:25.054Z,76.00
2018-03-25T14:26:51.519Z,76.40
2018-03-25T14:29:18.424Z,76.80
2018-03-25T14:31:45.835Z,77.30
2018-03-25T14:34:12.312Z,77.50
2018-03-25T14:36:39.173Z,78.10
2018-03-25T14:39:06.177Z,78.20
2018-03-25T14:41:32.845Z,78.20
2018-03-25T14:43:59.668Z,77.60
2018-03-25T14:46:26.408Z,77.90
2018-03-25T14:48:54.022Z,77.50
2018-03-25T14:51:21.425Z,77.20
2018-03-25T14:53:47.816Z,77.50
2018-03-25T14:56:15.100Z,77.40
2018-03-25T14:58:41.729Z,77.50
2018-03-25T15:01:08.182Z,77.90
2018-03-25T15:03:34.723Z,78.30
2018-03-25T15:06:01.286Z,79.00
2018-03-25T15:08:27.832Z,79.40
2018-03-25T15:13:43.753Z,79.30
2018-03-25T15:16:10.766Z,79.40
2018-03-25T15:18:37.573Z,79.70
2018-03-25T15:21:04.231Z,79.80
2018-03-25T15:23:30.652Z,80.20
2018-03-25T15:25:57.245Z,80.10
2018-03-25T15:28:23.716Z,80.20
2018-03-25T15:30:50.376Z,80.80
2018-03-25T15:33:16.775Z,81.10
2018-03-25T15:35:43.392Z,81.60
2018-03-25T15:38:09.891Z,82.00
2018-03-25T15:40:36.368Z,82.00
2018-03-25T15:43:03.016Z,82.00
2018-03-25T15:45:29.464Z,82.80
2018-03-25T15:47:56.056Z,82.60
2018-03-25T15:50:23.464Z,82.30
2018-03-25T15:52:50.010Z,83.00
2018-03-25T15:55:16.846Z,83.10
2018-03-25T15:57:43.680Z,83.90
2018-03-25T16:00:11.164Z,83.30
2018-03-25T16:02:37.690Z,83.50
2018-03-25T16:05:04.326Z,83.60
2018-03-25T16:07:30.752Z,83.80
2018-03-25T16:09:57.303Z,84.80
2018-03-25T16:12:23.872Z,83.90
2018-03-25T16:14:50.437Z,84.20
2018-03-25T16:17:17.121Z,84.60
2018-03-25T16:19:43.726Z,85.20
2018-03-25T16:22:10.276Z,85.30
2018-03-25T16:24:36.862Z,85.90
2018-03-25T16:27:03.409Z,85.70
2018-03-25T16:29:29.857Z,86.20
2018-03-25T16:31:56.402Z,86.60
2018-03-25T16:34:22.948Z,86.70
2018-03-25T16:36:49.521Z,86.80
2018-03-25T16:39:16.324Z,86.60
2018-03-25T16:41:42.830Z,86.50
2018-03-25T16:44:09.377Z,86.60
2018-03-25T16:46:35.916Z,86.40
2018-03-25T16:49:02.528Z,86.00
2018-03-25T16:51:29.677Z,86.00
2018-03-25T16:53:56.127Z,86.40
2018-03-25T16:56:22.545Z,86.90
2018-03-25T16:58:49.403Z,87.00
2018-03-25T17:01:17.596Z,86.60
2018-03-25T17:03:44.116Z,86.80
2018-03-25T17:06:10.716Z,86.80
2018-03-25T17:08:37.144Z,87.20
2018-03-25T17:11:04.121Z,86.90
2018-03-25T17:13:31.793Z,86.60
2018-03-25T17:15:58.327Z,86.60
2018-03-25T17:18:24.868Z,86.90
2018-03-25T17:20:51.469Z,86.70
2018-03-25T17:23:17.959Z,87.10
2018-03-25T17:25:44.465Z,86.80
2018-03-25T17:28:11.022Z,87.10
2018-03-25T17:30:37.558Z,87.00
2018-03-25T17:33:04.347Z,87.40
2018-03-25T17:35:30.915Z,87.70
2018-03-25T17:37:57.748Z,88.00
2018-03-25T17:40:24.148Z,87.80
2018-03-25T17:42:51.140Z,87.90
2018-03-25T17:45:18.042Z,88.20
2018-03-25T17:47:44.580Z,87.70
2018-03-25T17:50:11.043Z,87.80
2018-03-25T17:52:37.590Z,87.90
2018-03-25T17:55:04.136Z,88.40
2018-03-25T17:57:32.813Z,88.20
2018-03-25T17:59:59.400Z,88.50
2018-03-25T18:02:25.868Z,87.70
2018-03-25T18:04:52.492Z,87.70
2018-03-25T18:07:19.569Z,88.60
2018-03-25T18:09:46.208Z,88.30
2018-03-25T18:12:12.685Z,88.80
2018-03-25T18:14:39.214Z,88.80
2018-03-25T18:17:05.752Z,89.30
2018-03-25T18:19:32.312Z,89.80
2018-03-25T18:21:58.808Z,89.50
2018-03-25T18:24:25.411Z,89.60
2018-03-25T18:26:51.904Z,89.40
2018-03-25T18:29:18.372Z,89.70
2018-03-25T18:31:45.278Z,89.20
2018-03-25T18:34:11.779Z,89.80
2018-03-25T18:36:39.270Z,90.00
2018-03-25T18:39:06.004Z,89.80
2018-03-25T18:41:32.595Z,89.50
2018-03-25T18:43:59.136Z,89.60
2018-03-25T18:46:25.538Z,89.70
2018-03-25T18:48:52.575Z,89.40
2018-03-25T18:51:19.660Z,89.40
2018-03-25T18:53:46.553Z,89.30
2018-03-25T18:56:13.052Z,89.30
2018-03-25T18:58:39.628Z,89.40
2018-03-25T19:01:06.181Z,89.10
2018-03-25T19:03:32.703Z,89.20
2018-03-25T19:05:59.100Z,88.90
2018-03-25T19:08:26.072Z,89.40
2018-03-25T19:10:53.356Z,89.20
2018-03-25T19:13:20.292Z,89.50
2018-03-25T19:15:46.839Z,89.80
2018-03-25T19:18:13.393Z,89.20
2018-03-25T19:20:39.920Z,89.10
2018-03-25T19:23:06.757Z,88.60
2018-03-25T19:25:33.304Z,88.90
2018-03-25T19:27:59.902Z,88.40
2018-03-25T19:30:26.370Z,88.10
2018-03-25T19:32:53.031Z,88.20
2018-03-25T19:35:20.052Z,87.90
2018-03-25T19:37:46.644Z,87.70
2018-03-25T19:40:13.094Z,87.30
2018-03-25T19:42:39.728Z,87.90
2018-03-25T19:45:06.232Z,88.10
2018-03-25T19:47:32.757Z,88.20
2018-03-25T19:49:59.343Z,88.60
2018-03-25T19:52:25.818Z,88.40
2018-03-25T19:54:52.400Z,88.00
2018-03-25T19:57:20.460Z,88.10
2018-03-25T19:59:46.945Z,88.00
2018-03-25T20:02:13.480Z,87.60
2018-03-25T20:04:40.382Z,87.90
2018-03-25T20:07:06.851Z,88.20
2018-03-25T20:09:33.393Z,88.20
2018-03-25T20:12:00.004Z,88.60
2018-03-25T20:14:27.366Z,88.00
2018-03-25T20:16:54.019Z,88.00
2018-03-25T20:19:20.527Z,88.20
2018-03-25T20:21:46.978Z,88.10
2018-03-25T20:24:13.425Z,88.00
2018-03-25T20:26:40.062Z,87.80
2018-03-25T20:29:06.668Z,87.90
2018-03-25T20:31:33.130Z,87.80
2018-03-25T20:33:59.714Z,87.50
2018-03-25T20:36:26.498Z,87.20
2018-03-25T20:38:53.463Z,87.50
2018-03-25T20:41:19.957Z,87.40
2018-03-25T20:43:47.404Z,87.50
2018-03-25T20:46:13.861Z,87.70
2018-03-25T20:48:42.551Z,87.30
2018-03-25T20:51:09.110Z,87.30
2018-03-25T20:53:35.705Z,87.10
2018-03-25T20:56:03.210Z,87.80
2018-03-25T20:58:29.985Z,87.90
2018-03-25T21:00:56.859Z,88.10
2018-03-25T21:03:23.344Z,88.30
2018-03-25T21:05:50.148Z,88.80
2018-03-25T21:08:16.620Z,88.40
2018-03-25T21:10:43.211Z,88.30
2018-03-25T21:13:11.927Z,88.30
2018-03-25T21:15:39.656Z,88.70
2018-03-25T21:18:06.609Z,88.90
2018-03-25T21:20:33.012Z,89.50
2018-03-25T21:22:59.953Z,89.10
2018-03-25T21:25:26.477Z,89.30
2018-03-25T21:27:53.009Z,89.40
2018-03-25T21:30:19.508Z,89.20
2018-03-25T21:32:46.021Z,88.80
2018-03-25T21:35:12.670Z,89.10
2018-03-25T21:37:39.700Z,89.20
2018-03-25T21:40:06.248Z,89.50
2018-03-25T21:42:32.636Z,89.10
2018-03-25T21:44:59.934Z,89.00
2018-03-25T21:47:27.460Z,89.00
2018-03-25T21:49:53.912Z,89.50
2018-03-25T21:52:20.456Z,89.40
2018-03-25T21:54:47.288Z,89.20
2018-03-25T21:57:13.913Z,89.40
2018-03-25T21:59:40.416Z,89.90
2018-03-25T22:02:06.944Z,90.10
2018-03-25T22:04:33.441Z,89.60
2018-03-25T22:07:00.032Z,89.20
2018-03-25T22:09:28.051Z,88.90
2018-03-25T22:11:54.584Z,89.20
2018-03-25T22:14:21.163Z,88.70
2018-03-25T22:16:47.692Z,88.90
2018-03-25T22:19:14.192Z,88.50
2018-03-25T22:21:40.720Z,88.50
2018-03-25T22:24:07.249Z,88.40
2018-03-25T22:26:33.780Z,88.30
2018-03-25T22:29:00.312Z,88.40
2018-03-25T22:31:26.901Z,87.90
2018-03-25T22:33:53.392Z,88.20
2018-03-25T22:36:19.937Z,88.10
2018-03-25T22:38:46.477Z,88.50
2018-03-25T22:41:12.987Z,88.70
2018-03-25T22:43:39.677Z,88.30
2018-03-25T22:46:06.059Z,88.50
2018-03-25T22:48:32.661Z,89.10
2018-03-25T22:50:59.202Z,89.10
2018-03-25T22:53:25.795Z,89.00
2018-03-25T22:55:52.294Z,89.10
2018-03-25T22:58:18.804Z,89.10
2018-03-25T23:00:45.381Z,88.90
2018-03-25T23:03:12.464Z,89.00
2018-03-25T23:05:39.329Z,89.20
2018-03-25T23:08:05.806Z,89.20
2018-03-25T23:10:32.744Z,89.40
2018-03-25T23:13:00.487Z,89.10
2018-03-25T23:15:26.975Z,89.20
2018-03-25T23:17:53.476Z,89.20
2018-03-25T23:20:19.937Z,89.60
2018-03-25T23:22:46.868Z,90.00
2018-03-25T23:25:15.279Z,89.70
2018-03-25T23:27:41.840Z,89.60
2018-03-25T23:30:08.365Z,89.00
2018-03-25T23:32:34.835Z,89.30
2018-03-25T23:35:01.381Z,89.00
2018-03-25T23:37:28.276Z,89.20
2018-03-25T23:39:54.744Z,89.80
2018-03-25T23:42:21.132Z,89.40
2018-03-25T23:44:47.584Z,89.30
2018-03-25T23:47:14.053Z,89.20
2018-03-25T23:49:40.906Z,89.20
2018-03-25T23:52:07.304Z,89.10
2018-03-25T23:54:34.340Z,88.70
2018-03-25T23:57:02.041Z,88.50
2018-03-25T23:59:28.584Z,87.80
